sensor_id;sensor_type;location;lat;lon;timestamp;temperature;humidity
8226;DHT22;4154;48.810;9.012;2024-03-22T00:01:48;9.80;99.90
8226;DHT22;4154;48.810;9.012;2024-03-22T00:04:14;9.80;99.90
8226;DHT22;4154;48.810;9.012;2024-03-22T00:06:45;9.70;99.90
8226;DHT22;4154;48.810;9.012;2024-03-22T00:09:12;9.70;99.90
8226;DHT22;4154;48.810;9.012;2024-03-22T00:11:42;9.70;99.90
8226;DHT22;4154;48.810;9.012;2024-03-22T00:14:09;9.70;99.90
8226;DHT22;4154;48.810;9.012;2024-03-22T00:16:35;9.60;99.90
8226;DHT22;4154;48.810;9.012;2024-03-22T00:21:28;9.60;99.90
8226;DHT22;4154;48.810;9.012;2024-03-22T00:23:55;9.50;99.90
8226;DHT22;4154;48.810;9.012;2024-03-22T00:26:23;9.50;99.90
8226;DHT22;4154;48.810;9.012;2024-03-22T00:28:49;9.40;99.90
8226;DHT22;4154;48.810;9.012;2024-03-22T00:31:16;9.30;99.90
8226;DHT22;4154;48.810;9.012;2024-03-22T00:33:42;9.30;99.90
8226;DHT22;4154;48.810;9.012;2024-03-22T00:36:08;9.30;99.90
8226;DHT22;4154;48.810;9.012;2024-03-22T00:38:33;9.20;99.90
8226;DHT22;4154;48.810;9.012;2024-03-22T00:40:59;9.10;99.90
8226;DHT22;4154;48.810;9.012;2024-03-22T00:43:25;9.10;99.90
8226;DHT22;4154;48.810;9.012;2024-03-22T00:45:50;9.10;99.90
8226;DHT22;4154;48.810;9.012;2024-03-22T00:48:16;9.00;99.90
8226;DHT22;4154;48.810;9.012;2024-03-22T00:50:42;9.10;99.90
8226;DHT22;4154;48.810;9.012;2024-03-22T00:53:07;9.00;99.90
8226;DHT22;4154;48.810;9.012;2024-03-22T00:55:35;9.00;99.90
8226;DHT22;4154;48.810;9.012;2024-03-22T01:00:27;9.00;99.90
8226;DHT22;4154;48.810;9.012;2024-03-22T01:02:53;9.00;99.90
8226;DHT22;4154;48.810;9.012;2024-03-22T01:05:18;9.00;99.90
8226;DHT22;4154;48.810;9.012;2024-03-22T01:07:44;9.00;99.90
8226;DHT22;4154;48.810;9.012;2024-03-22T01:10:11;8.90;99.90
8226;DHT22;4154;48.810;9.012;2024-03-22T01:12:37;8.90;99.90
8226;DHT22;4154;48.810;9.012;2024-03-22T01:15:05;8.90;99.90
8226;DHT22;4154;48.810;9.012;2024-03-22T01:17:32;8.80;99.90
8226;DHT22;4154;48.810;9.012;2024-03-22T01:19:58;8.80;99.90
8226;DHT22;4154;48.810;9.012;2024-03-22T01:22:24;8.70;99.90
8226;DHT22;4154;48.810;9.012;2024-03-22T01:24:49;8.70;99.90
8226;DHT22;4154;48.810;9.012;2024-03-22T01:27:15;8.60;99.90
8226;DHT22;4154;48.810;9.012;2024-03-22T01:29:41;8.60;99.90
8226;DHT22;4154;48.810;9.012;2024-03-22T01:32:07;8.60;99.90
8226;DHT22;4154;48.810;9.012;2024-03-22T01:34:32;8.40;99.90
8226;DHT22;4154;48.810;9.012;2024-03-22T01:37:00;8.40;99.90
8226;DHT22;4154;48.810;9.012;2024-03-22T01:39:26;8.40;99.90
8226;DHT22;4154;48.810;9.012;2024-03-22T01:41:51;8.40;99.90
8226;DHT22;4154;48.810;9.012;2024-03-22T01:44:17;8.40;99.90
8226;DHT22;4154;48.810;9.012;2024-03-22T01:46:44;8.30;99.90
8226;DHT22;4154;48.810;9.012;2024-03-22T01:49:12;8.20;99.90
8226;DHT22;4154;48.810;9.012;2024-03-22T01:51:41;8.20;99.90
8226;DHT22;4154;48.810;9.012;2024-03-22T01:54:09;8.10;99.90
8226;DHT22;4154;48.810;9.012;2024-03-22T01:56:39;8.10;99.90
8226;DHT22;4154;48.810;9.012;2024-03-22T01:59:05;8.00;99.90
8226;DHT22;4154;48.810;9.012;2024-03-22T02:01:32;8.00;99.90
8226;DHT22;4154;48.810;9.012;2024-03-22T02:03:58;8.00;99.90
8226;DHT22;4154;48.810;9.012;2024-03-22T02:06:24;7.90;99.90
8226;DHT22;4154;48.810;9.012;2024-03-22T02:08:49;7.90;99.90
8226;DHT22;4154;48.810;9.012;2024-03-22T02:11:15;7.90;99.90
8226;DHT22;4154;48.810;9.012;2024-03-22T02:13:41;7.80;99.90
8226;DHT22;4154;48.810;9.012;2024-03-22T02:16:08;7.90;99.90
8226;DHT22;4154;48.810;9.012;2024-03-22T02:18:34;7.80;99.90
8226;DHT22;4154;48.810;9.012;2024-03-22T02:20:59;7.90;99.90
8226;DHT22;4154;48.810;9.012;2024-03-22T02:23:35;7.90;99.90
8226;DHT22;4154;48.810;9.012;2024-03-22T02:26:02;7.90;99.90
8226;DHT22;4154;48.810;9.012;2024-03-22T02:28:29;7.90;99.90
8226;DHT22;4154;48.810;9.012;2024-03-22T02:30:55;7.90;99.90
8226;DHT22;4154;48.810;9.012;2024-03-22T02:33:21;7.90;99.90
8226;DHT22;4154;48.810;9.012;2024-03-22T02:35:47;7.80;99.90
8226;DHT22;4154;48.810;9.012;2024-03-22T02:38:13;8.00;99.90
8226;DHT22;4154;48.810;9.012;2024-03-22T02:40:39;7.80;99.90
8226;DHT22;4154;48.810;9.012;2024-03-22T02:43:04;7.80;99.90
8226;DHT22;4154;48.810;9.012;2024-03-22T02:45:31;7.70;99.90
8226;DHT22;4154;48.810;9.012;2024-03-22T02:47:57;7.70;99.90
8226;DHT22;4154;48.810;9.012;2024-03-22T02:50:23;7.70;99.90
8226;DHT22;4154;48.810;9.012;2024-03-22T02:52:49;7.60;99.90
8226;DHT22;4154;48.810;9.012;2024-03-22T02:55:15;7.60;99.90
8226;DHT22;4154;48.810;9.012;2024-03-22T02:57:40;7.60;99.90
8226;DHT22;4154;48.810;9.012;2024-03-22T03:00:06;7.60;99.90
8226;DHT22;4154;48.810;9.012;2024-03-22T03:04:58;7.60;99.90
8226;DHT22;4154;48.810;9.012;2024-03-22T03:09:51;7.70;99.90
8226;DHT22;4154;48.810;9.012;2024-03-22T03:12:17;7.70;99.90
8226;DHT22;4154;48.810;9.012;2024-03-22T03:14:42;7.70;99.90
8226;DHT22;4154;48.810;9.012;2024-03-22T03:17:08;7.70;99.90
8226;DHT22;4154;48.810;9.012;2024-03-22T03:22:00;7.70;99.90
8226;DHT22;4154;48.810;9.012;2024-03-22T03:24:25;7.70;99.90
8226;DHT22;4154;48.810;9.012;2024-03-22T03:26:51;7.70;99.90
8226;DHT22;4154;48.810;9.012;2024-03-22T03:31:43;7.70;99.90
8226;DHT22;4154;48.810;9.012;2024-03-22T03:34:08;7.80;99.90
8226;DHT22;4154;48.810;9.012;2024-03-22T03:36:34;7.80;99.90
8226;DHT22;4154;48.810;9.012;2024-03-22T03:38:59;7.70;99.90
8226;DHT22;4154;48.810;9.012;2024-03-22T03:41:25;7.80;99.90
8226;DHT22;4154;48.810;9.012;2024-03-22T03:43:51;7.80;99.90
8226;DHT22;4154;48.810;9.012;2024-03-22T03:46:16;7.80;99.90
8226;DHT22;4154;48.810;9.012;2024-03-22T03:48:42;7.90;99.90
8226;DHT22;4154;48.810;9.012;2024-03-22T03:51:08;7.90;99.90
8226;DHT22;4154;48.810;9.012;2024-03-22T03:53:33;7.90;99.90
8226;DHT22;4154;48.810;9.012;2024-03-22T03:55:59;7.90;99.90
8226;DHT22;4154;48.810;9.012;2024-03-22T04:03:17;7.90;99.90
8226;DHT22;4154;48.810;9.012;2024-03-22T04:05:42;7.90;99.90
8226;DHT22;4154;48.810;9.012;2024-03-22T04:08:08;7.90;99.90
8226;DHT22;4154;48.810;9.012;2024-03-22T04:10:33;7.90;99.90
8226;DHT22;4154;48.810;9.012;2024-03-22T04:12:59;7.90;99.90
8226;DHT22;4154;48.810;9.012;2024-03-22T04:15:25;7.90;99.90
8226;DHT22;4154;48.810;9.012;2024-03-22T04:17:50;8.00;99.90
8226;DHT22;4154;48.810;9.012;2024-03-22T04:20:16;8.00;99.90
8226;DHT22;4154;48.810;9.012;2024-03-22T04:22:42;8.00;99.90
8226;DHT22;4154;48.810;9.012;2024-03-22T04:25:07;8.00;99.90
8226;DHT22;4154;48.810;9.012;2024-03-22T04:27:36;8.10;99.90
8226;DHT22;4154;48.810;9.012;2024-03-22T04:30:02;8.10;99.90
8226;DHT22;4154;48.810;9.012;2024-03-22T04:34:54;8.10;99.90
8226;DHT22;4154;48.810;9.012;2024-03-22T04:37:20;8.10;99.90
8226;DHT22;4154;48.810;9.012;2024-03-22T04:39:46;8.10;99.90
8226;DHT22;4154;48.810;9.012;2024-03-22T04:42:12;8.10;99.90
8226;DHT22;4154;48.810;9.012;2024-03-22T04:44:38;8.20;99.90
8226;DHT22;4154;48.810;9.012;2024-03-22T04:47:03;8.20;99.90
8226;DHT22;4154;48.810;9.012;2024-03-22T04:49:29;8.20;99.90
8226;DHT22;4154;48.810;9.012;2024-03-22T04:51:55;8.20;99.90
8226;DHT22;4154;48.810;9.012;2024-03-22T04:54:20;8.30;99.90
8226;DHT22;4154;48.810;9.012;2024-03-22T04:56:46;8.30;99.90
8226;DHT22;4154;48.810;9.012;2024-03-22T04:59:12;8.30;99.90
8226;DHT22;4154;48.810;9.012;2024-03-22T05:01:37;8.30;99.90
8226;DHT22;4154;48.810;9.012;2024-03-22T05:04:03;8.30;99.90
8226;DHT22;4154;48.810;9.012;2024-03-22T05:06:29;8.30;99.90
8226;DHT22;4154;48.810;9.012;2024-03-22T05:08:54;8.30;99.90
8226;DHT22;4154;48.810;9.012;2024-03-22T05:11:20;8.30;99.90
8226;DHT22;4154;48.810;9.012;2024-03-22T05:13:46;8.30;99.90
8226;DHT22;4154;48.810;9.012;2024-03-22T05:16:12;8.40;99.90
8226;DHT22;4154;48.810;9.012;2024-03-22T05:18:37;8.40;99.90
8226;DHT22;4154;48.810;9.012;2024-03-22T05:21:03;8.40;99.90
8226;DHT22;4154;48.810;9.012;2024-03-22T05:23:29;8.40;99.90
8226;DHT22;4154;48.810;9.012;2024-03-22T05:25:55;8.40;99.90
8226;DHT22;4154;48.810;9.012;2024-03-22T05:28:20;9.00;99.90
8226;DHT22;4154;48.810;9.012;2024-03-22T05:30:47;8.40;99.90
8226;DHT22;4154;48.810;9.012;2024-03-22T05:33:12;8.40;99.90
8226;DHT22;4154;48.810;9.012;2024-03-22T05:35:38;8.40;99.90
8226;DHT22;4154;48.810;9.012;2024-03-22T05:38:03;8.40;99.90
8226;DHT22;4154;48.810;9.012;2024-03-22T05:40:29;8.40;99.90
8226;DHT22;4154;48.810;9.012;2024-03-22T05:42:56;8.40;99.90
8226;DHT22;4154;48.810;9.012;2024-03-22T05:45:21;8.40;99.90
8226;DHT22;4154;48.810;9.012;2024-03-22T05:47:47;8.40;99.90
8226;DHT22;4154;48.810;9.012;2024-03-22T05:50:13;8.40;99.90
8226;DHT22;4154;48.810;9.012;2024-03-22T05:52:39;8.40;99.90
8226;DHT22;4154;48.810;9.012;2024-03-22T05:55:05;8.50;99.90
8226;DHT22;4154;48.810;9.012;2024-03-22T05:59:58;8.40;99.90
8226;DHT22;4154;48.810;9.012;2024-03-22T06:02:23;8.40;99.90
8226;DHT22;4154;48.810;9.012;2024-03-22T06:04:49;8.40;99.90
8226;DHT22;4154;48.810;9.012;2024-03-22T06:07:14;8.40;99.90
8226;DHT22;4154;48.810;9.012;2024-03-22T06:09:42;8.50;99.90
8226;DHT22;4154;48.810;9.012;2024-03-22T06:12:14;8.40;99.90
8226;DHT22;4154;48.810;9.012;2024-03-22T06:14:44;8.40;99.90
8226;DHT22;4154;48.810;9.012;2024-03-22T06:17:12;8.50;99.90
8226;DHT22;4154;48.810;9.012;2024-03-22T06:19:37;8.40;99.90
8226;DHT22;4154;48.810;9.012;2024-03-22T06:22:03;8.50;99.90
8226;DHT22;4154;48.810;9.012;2024-03-22T06:24:29;8.50;99.90
8226;DHT22;4154;48.810;9.012;2024-03-22T06:26:55;8.50;99.90
8226;DHT22;4154;48.810;9.012;2024-03-22T06:29:21;8.60;99.90
8226;DHT22;4154;48.810;9.012;2024-03-22T06:31:47;8.60;99.90
8226;DHT22;4154;48.810;9.012;2024-03-22T06:34:13;8.60;99.90
8226;DHT22;4154;48.810;9.012;2024-03-22T06:36:39;8.60;99.90
8226;DHT22;4154;48.810;9.012;2024-03-22T06:39:04;8.60;99.90
8226;DHT22;4154;48.810;9.012;2024-03-22T06:41:34;8.70;99.90
8226;DHT22;4154;48.810;9.012;2024-03-22T06:44:00;8.80;99.90
8226;DHT22;4154;48.810;9.012;2024-03-22T06:46:26;8.80;99.90
8226;DHT22;4154;48.810;9.012;2024-03-22T06:48:52;8.80;99.90
8226;DHT22;4154;48.810;9.012;2024-03-22T06:51:18;8.80;99.90
8226;DHT22;4154;48.810;9.012;2024-03-22T06:53:44;8.80;99.90
8226;DHT22;4154;48.810;9.012;2024-03-22T06:56:11;8.80;99.90
8226;DHT22;4154;48.810;9.012;2024-03-22T07:01:06;8.90;99.90
8226;DHT22;4154;48.810;9.012;2024-03-22T07:03:31;8.90;99.90
8226;DHT22;4154;48.810;9.012;2024-03-22T07:05:57;8.90;99.90
8226;DHT22;4154;48.810;9.012;2024-03-22T07:08:24;9.10;99.90
8226;DHT22;4154;48.810;9.012;2024-03-22T07:10:50;9.00;99.90
8226;DHT22;4154;48.810;9.012;2024-03-22T07:13:18;9.00;99.90
8226;DHT22;4154;48.810;9.012;2024-03-22T07:15:47;9.00;99.90
8226;DHT22;4154;48.810;9.012;2024-03-22T07:18:16;9.10;99.90
8226;DHT22;4154;48.810;9.012;2024-03-22T07:20:42;9.20;99.90
8226;DHT22;4154;48.810;9.012;2024-03-22T07:23:08;9.20;99.90
8226;DHT22;4154;48.810;9.012;2024-03-22T07:25:34;9.20;99.90
8226;DHT22;4154;48.810;9.012;2024-03-22T07:28:00;9.30;99.90
8226;DHT22;4154;48.810;9.012;2024-03-22T07:30:26;9.30;99.90
8226;DHT22;4154;48.810;9.012;2024-03-22T07:32:51;9.40;99.90
8226;DHT22;4154;48.810;9.012;2024-03-22T07:35:17;9.50;99.90
8226;DHT22;4154;48.810;9.012;2024-03-22T07:37:42;9.50;99.90
8226;DHT22;4154;48.810;9.012;2024-03-22T07:40:08;9.60;99.90
8226;DHT22;4154;48.810;9.012;2024-03-22T07:42:35;9.70;99.90
8226;DHT22;4154;48.810;9.012;2024-03-22T07:45:00;9.70;99.90
8226;DHT22;4154;48.810;9.012;2024-03-22T07:47:26;9.90;99.90
8226;DHT22;4154;48.810;9.012;2024-03-22T07:49:53;9.90;99.90
8226;DHT22;4154;48.810;9.012;2024-03-22T07:52:19;10.00;99.90
8226;DHT22;4154;48.810;9.012;2024-03-22T07:54:44;10.10;99.90
8226;DHT22;4154;48.810;9.012;2024-03-22T07:57:10;10.20;99.90
8226;DHT22;4154;48.810;9.012;2024-03-22T07:59:36;10.30;99.90
8226;DHT22;4154;48.810;9.012;2024-03-22T08:02:02;10.40;99.90
8226;DHT22;4154;48.810;9.012;2024-03-22T08:04:28;10.50;99.90
8226;DHT22;4154;48.810;9.012;2024-03-22T08:09:20;10.70;99.90
8226;DHT22;4154;48.810;9.012;2024-03-22T08:11:46;10.80;99.90
8226;DHT22;4154;48.810;9.012;2024-03-22T08:14:13;11.00;99.90
8226;DHT22;4154;48.810;9.012;2024-03-22T08:16:38;11.20;99.90
8226;DHT22;4154;48.810;9.012;2024-03-22T08:19:04;11.30;99.90
8226;DHT22;4154;48.810;9.012;2024-03-22T08:21:30;11.30;99.80
8226;DHT22;4154;48.810;9.012;2024-03-22T08:23:55;11.40;99.90
8226;DHT22;4154;48.810;9.012;2024-03-22T08:26:21;11.50;99.90
8226;DHT22;4154;48.810;9.012;2024-03-22T08:28:47;11.60;99.80
8226;DHT22;4154;48.810;9.012;2024-03-22T08:31:13;11.60;99.80
8226;DHT22;4154;48.810;9.012;2024-03-22T08:33:40;11.70;99.70
8226;DHT22;4154;48.810;9.012;2024-03-22T08:36:06;11.80;99.50
8226;DHT22;4154;48.810;9.012;2024-03-22T08:38:31;11.80;99.50
8226;DHT22;4154;48.810;9.012;2024-03-22T08:40:57;11.90;99.60
8226;DHT22;4154;48.810;9.012;2024-03-22T08:43:23;11.90;99.70
8226;DHT22;4154;48.810;9.012;2024-03-22T08:45:51;12.00;99.60
8226;DHT22;4154;48.810;9.012;2024-03-22T08:48:17;12.00;99.90
8226;DHT22;4154;48.810;9.012;2024-03-22T08:50:44;12.20;99.80
8226;DHT22;4154;48.810;9.012;2024-03-22T08:53:10;12.30;99.90
8226;DHT22;4154;48.810;9.012;2024-03-22T08:55:35;12.30;99.40
8226;DHT22;4154;48.810;9.012;2024-03-22T08:58:02;12.40;99.20
8226;DHT22;4154;48.810;9.012;2024-03-22T09:00:29;12.50;99.30
8226;DHT22;4154;48.810;9.012;2024-03-22T09:02:55;12.60;99.40
8226;DHT22;4154;48.810;9.012;2024-03-22T09:05:20;12.80;99.30
8226;DHT22;4154;48.810;9.012;2024-03-22T09:07:46;12.90;98.90
8226;DHT22;4154;48.810;9.012;2024-03-22T09:10:13;13.00;98.70
8226;DHT22;4154;48.810;9.012;2024-03-22T09:12:39;13.10;98.70
8226;DHT22;4154;48.810;9.012;2024-03-22T09:15:06;13.20;98.40
8226;DHT22;4154;48.810;9.012;2024-03-22T09:17:32;13.40;98.30
8226;DHT22;4154;48.810;9.012;2024-03-22T09:19:58;13.50;98.10
8226;DHT22;4154;48.810;9.012;2024-03-22T09:22:24;13.60;97.60
8226;DHT22;4154;48.810;9.012;2024-03-22T09:24:49;13.70;97.70
8226;DHT22;4154;48.810;9.012;2024-03-22T09:27:15;13.80;97.70
8226;DHT22;4154;48.810;9.012;2024-03-22T09:29:41;14.00;97.80
8226;DHT22;4154;48.810;9.012;2024-03-22T09:32:09;14.10;97.00
8226;DHT22;4154;48.810;9.012;2024-03-22T09:37:00;14.30;96.50
8226;DHT22;4154;48.810;9.012;2024-03-22T09:39:27;14.40;96.10
8226;DHT22;4154;48.810;9.012;2024-03-22T09:41:57;14.50;96.00
8226;DHT22;4154;48.810;9.012;2024-03-22T09:44:27;14.50;96.20
8226;DHT22;4154;48.810;9.012;2024-03-22T09:46:53;14.50;95.80
8226;DHT22;4154;48.810;9.012;2024-03-22T09:49:19;14.60;96.10
8226;DHT22;4154;48.810;9.012;2024-03-22T09:51:45;14.70;95.40
8226;DHT22;4154;48.810;9.012;2024-03-22T09:54:12;14.80;95.40
8226;DHT22;4154;48.810;9.012;2024-03-22T09:56:42;15.00;95.40
8226;DHT22;4154;48.810;9.012;2024-03-22T09:59:09;15.20;99.60
8226;DHT22;4154;48.810;9.012;2024-03-22T10:01:39;15.20;95.20
8226;DHT22;4154;48.810;9.012;2024-03-22T10:04:05;15.30;95.70
8226;DHT22;4154;48.810;9.012;2024-03-22T10:06:32;15.40;95.20
8226;DHT22;4154;48.810;9.012;2024-03-22T10:08:59;15.40;95.00
8226;DHT22;4154;48.810;9.012;2024-03-22T10:11:28;15.50;94.70
8226;DHT22;4154;48.810;9.012;2024-03-22T10:13:54;15.50;94.20
8226;DHT22;4154;48.810;9.012;2024-03-22T10:16:21;15.60;94.00
8226;DHT22;4154;48.810;9.012;2024-03-22T10:18:47;15.60;93.80
8226;DHT22;4154;48.810;9.012;2024-03-22T10:21:17;15.60;93.90
8226;DHT22;4154;48.810;9.012;2024-03-22T10:23:43;15.60;94.00
8226;DHT22;4154;48.810;9.012;2024-03-22T10:26:10;15.70;93.90
8226;DHT22;4154;48.810;9.012;2024-03-22T10:28:35;15.80;93.60
8226;DHT22;4154;48.810;9.012;2024-03-22T10:31:01;15.90;93.30
8226;DHT22;4154;48.810;9.012;2024-03-22T10:33:29;16.00;92.40
8226;DHT22;4154;48.810;9.012;2024-03-22T10:35:55;16.00;92.20
8226;DHT22;4154;48.810;9.012;2024-03-22T10:38:22;16.20;96.40
8226;DHT22;4154;48.810;9.012;2024-03-22T10:40:48;16.00;91.80
8226;DHT22;4154;48.810;9.012;2024-03-22T10:43:14;16.10;92.40
8226;DHT22;4154;48.810;9.012;2024-03-22T10:45:41;16.10;92.50
8226;DHT22;4154;48.810;9.012;2024-03-22T10:48:10;15.90;95.60
8226;DHT22;4154;48.810;9.012;2024-03-22T10:50:40;16.20;91.50
8226;DHT22;4154;48.810;9.012;2024-03-22T10:53:16;16.30;91.20
8226;DHT22;4154;48.810;9.012;2024-03-22T10:55:49;16.40;91.40
8226;DHT22;4154;48.810;9.012;2024-03-22T10:58:21;16.60;93.70
8226;DHT22;4154;48.810;9.012;2024-03-22T11:00:50;16.60;88.60
8226;DHT22;4154;48.810;9.012;2024-03-22T11:03:20;16.80;88.50
8226;DHT22;4154;48.810;9.012;2024-03-22T11:05:47;16.80;87.60
8226;DHT22;4154;48.810;9.012;2024-03-22T11:08:26;17.30;94.20
8226;DHT22;4154;48.810;9.012;2024-03-22T11:10:55;16.80;89.10
8226;DHT22;4154;48.810;9.012;2024-03-22T11:13:22;16.90;90.20
8226;DHT22;4154;48.810;9.012;2024-03-22T11:15:49;17.00;90.10
8226;DHT22;4154;48.810;9.012;2024-03-22T11:18:15;17.30;94.20
8226;DHT22;4154;48.810;9.012;2024-03-22T11:20:45;17.20;89.60
8226;DHT22;4154;48.810;9.012;2024-03-22T11:23:11;17.30;89.80
8226;DHT22;4154;48.810;9.012;2024-03-22T11:25:36;17.50;90.30
8226;DHT22;4154;48.810;9.012;2024-03-22T11:28:02;17.50;90.00
8226;DHT22;4154;48.810;9.012;2024-03-22T11:30:29;17.60;88.90
8226;DHT22;4154;48.810;9.012;2024-03-22T11:32:57;17.60;87.70
8226;DHT22;4154;48.810;9.012;2024-03-22T11:35:26;17.50;88.70
8226;DHT22;4154;48.810;9.012;2024-03-22T11:37:52;17.50;87.20
8226;DHT22;4154;48.810;9.012;2024-03-22T11:40:17;17.50;86.90
8226;DHT22;4154;48.810;9.012;2024-03-22T11:42:49;17.60;88.90
8226;DHT22;4154;48.810;9.012;2024-03-22T11:45:17;17.70;90.00
8226;DHT22;4154;48.810;9.012;2024-03-22T11:47:47;17.80;90.20
8226;DHT22;4154;48.810;9.012;2024-03-22T11:50:13;17.90;88.40
8226;DHT22;4154;48.810;9.012;2024-03-22T11:52:41;18.00;88.60
8226;DHT22;4154;48.810;9.012;2024-03-22T11:55:07;18.10;87.60
8226;DHT22;4154;48.810;9.012;2024-03-22T11:57:33;18.10;86.40
8226;DHT22;4154;48.810;9.012;2024-03-22T12:00:00;18.10;85.60
8226;DHT22;4154;48.810;9.012;2024-03-22T12:02:26;18.10;86.10
8226;DHT22;4154;48.810;9.012;2024-03-22T12:04:53;18.10;85.40
8226;DHT22;4154;48.810;9.012;2024-03-22T12:07:19;18.00;83.50
8226;DHT22;4154;48.810;9.012;2024-03-22T12:09:44;18.10;84.80
8226;DHT22;4154;48.810;9.012;2024-03-22T12:12:11;18.20;84.90
8226;DHT22;4154;48.810;9.012;2024-03-22T12:14:39;18.10;85.20
8226;DHT22;4154;48.810;9.012;2024-03-22T12:17:06;18.20;85.60
8226;DHT22;4154;48.810;9.012;2024-03-22T12:19:32;18.20;86.50
8226;DHT22;4154;48.810;9.012;2024-03-22T12:21:59;18.30;85.60
8226;DHT22;4154;48.810;9.012;2024-03-22T12:24:26;18.30;87.00
8226;DHT22;4154;48.810;9.012;2024-03-22T12:26:53;18.40;87.80
8226;DHT22;4154;48.810;9.012;2024-03-22T12:29:19;18.40;85.80
8226;DHT22;4154;48.810;9.012;2024-03-22T12:31:46;18.40;86.50
8226;DHT22;4154;48.810;9.012;2024-03-22T12:34:12;18.40;87.20
8226;DHT22;4154;48.810;9.012;2024-03-22T12:36:38;18.60;92.70
8226;DHT22;4154;48.810;9.012;2024-03-22T12:39:04;18.60;86.80
8226;DHT22;4154;48.810;9.012;2024-03-22T12:41:30;18.60;84.90
8226;DHT22;4154;48.810;9.012;2024-03-22T12:43:57;18.60;84.40
8226;DHT22;4154;48.810;9.012;2024-03-22T12:46:23;18.60;84.90
8226;DHT22;4154;48.810;9.012;2024-03-22T12:48:49;18.70;84.90
8226;DHT22;4154;48.810;9.012;2024-03-22T12:51:15;18.70;85.70
8226;DHT22;4154;48.810;9.012;2024-03-22T12:53:41;18.60;86.60
8226;DHT22;4154;48.810;9.012;2024-03-22T12:56:07;18.60;85.90
8226;DHT22;4154;48.810;9.012;2024-03-22T12:58:33;18.70;86.00
8226;DHT22;4154;48.810;9.012;2024-03-22T13:00:59;18.70;85.40
8226;DHT22;4154;48.810;9.012;2024-03-22T13:05:53;18.80;83.20
8226;DHT22;4154;48.810;9.012;2024-03-22T13:08:19;18.90;90.80
8226;DHT22;4154;48.810;9.012;2024-03-22T13:10:46;18.90;82.80
8226;DHT22;4154;48.810;9.012;2024-03-22T13:13:13;19.00;83.80
8226;DHT22;4154;48.810;9.012;2024-03-22T13:15:42;19.10;83.00
8226;DHT22;4154;48.810;9.012;2024-03-22T13:18:08;19.10;92.40
8226;DHT22;4154;48.810;9.012;2024-03-22T13:20:35;19.30;86.70
8226;DHT22;4154;48.810;9.012;2024-03-22T13:23:01;19.40;86.40
8226;DHT22;4154;48.810;9.012;2024-03-22T13:30:20;19.60;85.90
8226;DHT22;4154;48.810;9.012;2024-03-22T13:32:45;19.60;85.30
8226;DHT22;4154;48.810;9.012;2024-03-22T13:35:11;19.60;85.30
8226;DHT22;4154;48.810;9.012;2024-03-22T13:40:03;19.60;86.10
8226;DHT22;4154;48.810;9.012;2024-03-22T13:44:58;19.60;85.80
8226;DHT22;4154;48.810;9.012;2024-03-22T13:47:25;19.60;84.40
8226;DHT22;4154;48.810;9.012;2024-03-22T13:49:53;19.60;82.80
8226;DHT22;4154;48.810;9.012;2024-03-22T13:52:19;19.60;83.70
8226;DHT22;4154;48.810;9.012;2024-03-22T13:54:46;19.60;87.30
8226;DHT22;4154;48.810;9.012;2024-03-22T13:59:38;19.50;86.10
8226;DHT22;4154;48.810;9.012;2024-03-22T14:02:06;19.50;85.30
8226;DHT22;4154;48.810;9.012;2024-03-22T14:04:33;19.50;85.00
8226;DHT22;4154;48.810;9.012;2024-03-22T14:06:59;19.40;84.70
8226;DHT22;4154;48.810;9.012;2024-03-22T14:09:28;19.30;85.00
8226;DHT22;4154;48.810;9.012;2024-03-22T14:14:20;19.20;83.80
8226;DHT22;4154;48.810;9.012;2024-03-22T14:16:45;19.20;83.70
8226;DHT22;4154;48.810;9.012;2024-03-22T14:19:11;19.10;81.50
8226;DHT22;4154;48.810;9.012;2024-03-22T14:21:37;19.10;80.30
8226;DHT22;4154;48.810;9.012;2024-03-22T14:24:04;19.00;79.80
8226;DHT22;4154;48.810;9.012;2024-03-22T14:28:56;19.00;78.60
8226;DHT22;4154;48.810;9.012;2024-03-22T14:31:21;19.00;79.20
8226;DHT22;4154;48.810;9.012;2024-03-22T14:33:47;19.00;79.30
8226;DHT22;4154;48.810;9.012;2024-03-22T14:36:13;19.00;79.60
8226;DHT22;4154;48.810;9.012;2024-03-22T14:38:39;19.00;76.50
8226;DHT22;4154;48.810;9.012;2024-03-22T14:41:05;18.90;76.80
8226;DHT22;4154;48.810;9.012;2024-03-22T14:43:31;19.00;77.50
8226;DHT22;4154;48.810;9.012;2024-03-22T14:46:00;19.00;77.90
8226;DHT22;4154;48.810;9.012;2024-03-22T14:48:29;19.00;77.50
8226;DHT22;4154;48.810;9.012;2024-03-22T14:50:55;19.00;77.20
8226;DHT22;4154;48.810;9.012;2024-03-22T14:53:21;19.00;77.60
8226;DHT22;4154;48.810;9.012;2024-03-22T14:55:58;18.90;77.80
8226;DHT22;4154;48.810;9.012;2024-03-22T14:58:27;18.60;86.60
8226;DHT22;4154;48.810;9.012;2024-03-22T15:00:57;18.70;77.20
8226;DHT22;4154;48.810;9.012;2024-03-22T15:03:25;18.70;76.50
8226;DHT22;4154;48.810;9.012;2024-03-22T15:05:52;18.60;75.80
8226;DHT22;4154;48.810;9.012;2024-03-22T15:08:19;18.70;85.80
8226;DHT22;4154;48.810;9.012;2024-03-22T15:10:45;18.50;75.90
8226;DHT22;4154;48.810;9.012;2024-03-22T15:13:12;18.60;76.40
8226;DHT22;4154;48.810;9.012;2024-03-22T15:15:38;18.50;75.80
8226;DHT22;4154;48.810;9.012;2024-03-22T15:18:04;18.50;77.00
8226;DHT22;4154;48.810;9.012;2024-03-22T15:20:31;18.40;77.30
8226;DHT22;4154;48.810;9.012;2024-03-22T15:22:57;18.30;76.20
8226;DHT22;4154;48.810;9.012;2024-03-22T15:25:23;18.20;75.40
8226;DHT22;4154;48.810;9.012;2024-03-22T15:27:49;18.20;76.50
8226;DHT22;4154;48.810;9.012;2024-03-22T15:30:15;18.10;76.90
8226;DHT22;4154;48.810;9.012;2024-03-22T15:32:41;18.10;77.10
8226;DHT22;4154;48.810;9.012;2024-03-22T15:35:07;18.00;77.20
8226;DHT22;4154;48.810;9.012;2024-03-22T15:37:34;17.90;77.10
8226;DHT22;4154;48.810;9.012;2024-03-22T15:40:01;17.80;76.80
8226;DHT22;4154;48.810;9.012;2024-03-22T15:42:27;17.80;77.40
8226;DHT22;4154;48.810;9.012;2024-03-22T15:44:53;17.80;77.90
8226;DHT22;4154;48.810;9.012;2024-03-22T15:47:18;17.80;79.50
8226;DHT22;4154;48.810;9.012;2024-03-22T15:49:44;17.70;88.20
8226;DHT22;4154;48.810;9.012;2024-03-22T15:52:10;17.80;78.90
8226;DHT22;4154;48.810;9.012;2024-03-22T15:57:01;17.80;78.50
8226;DHT22;4154;48.810;9.012;2024-03-22T15:59:27;17.70;79.80
8226;DHT22;4154;48.810;9.012;2024-03-22T16:01:53;17.70;79.50
8226;DHT22;4154;48.810;9.012;2024-03-22T16:09:13;17.70;77.80
8226;DHT22;4154;48.810;9.012;2024-03-22T16:14:05;17.70;79.20
8226;DHT22;4154;48.810;9.012;2024-03-22T16:18:57;17.70;78.70
8226;DHT22;4154;48.810;9.012;2024-03-22T16:21:22;17.70;79.60
8226;DHT22;4154;48.810;9.012;2024-03-22T16:23:48;17.70;79.80
8226;DHT22;4154;48.810;9.012;2024-03-22T16:26:14;17.70;80.10
8226;DHT22;4154;48.810;9.012;2024-03-22T16:28:39;17.90;79.80
8226;DHT22;4154;48.810;9.012;2024-03-22T16:31:05;17.70;78.30
8226;DHT22;4154;48.810;9.012;2024-03-22T16:33:31;17.60;88.40
8226;DHT22;4154;48.810;9.012;2024-03-22T16:35:57;17.60;78.50
8226;DHT22;4154;48.810;9.012;2024-03-22T16:38:24;17.60;89.10
8226;DHT22;4154;48.810;9.012;2024-03-22T16:40:49;17.50;78.60
8226;DHT22;4154;48.810;9.012;2024-03-22T16:43:15;17.40;79.00
8226;DHT22;4154;48.810;9.012;2024-03-22T16:45:41;17.40;79.30
8226;DHT22;4154;48.810;9.012;2024-03-22T16:48:07;17.40;89.20
8226;DHT22;4154;48.810;9.012;2024-03-22T16:50:33;17.20;79.60
8226;DHT22;4154;48.810;9.012;2024-03-22T16:52:58;17.20;79.60
8226;DHT22;4154;48.810;9.012;2024-03-22T16:55:24;17.20;79.90
8226;DHT22;4154;48.810;9.012;2024-03-22T17:00:18;17.10;79.70
8226;DHT22;4154;48.810;9.012;2024-03-22T17:02:45;17.10;80.30
8226;DHT22;4154;48.810;9.012;2024-03-22T17:05:11;17.10;80.80
8226;DHT22;4154;48.810;9.012;2024-03-22T17:07:37;17.10;82.90
8226;DHT22;4154;48.810;9.012;2024-03-22T17:10:03;17.10;84.40